createdAt,value
2022-10-17T00:00:35.579Z,1.58
2022-10-17T00:03:02.111Z,2.20
2022-10-17T00:05:28.722Z,1.60
2022-10-17T00:07:55.044Z,2.40
2022-10-17T00:10:21.622Z,1.63
2022-10-17T00:12:47.969Z,2.00
2022-10-17T00:15:17.942Z,2.28
2022-10-17T00:17:44.419Z,1.88
2022-10-17T00:20:11.053Z,2.30
2022-10-17T00:22:37.711Z,2.03
2022-10-17T00:25:04.129Z,2.47
2022-10-17T00:27:30.802Z,2.55
2022-10-17T00:29:57.128Z,2.40
2022-10-17T00:32:23.440Z,1.40
2022-10-17T00:34:49.741Z,2.10
2022-10-17T00:37:16.060Z,1.13
2022-10-17T00:39:42.396Z,2.30
2022-10-17T00:42:10.901Z,2.63
2022-10-17T00:44:37.184Z,2.60
2022-10-17T00:47:07.313Z,2.95
2022-10-17T00:49:35.785Z,2.35
2022-10-17T00:52:03.529Z,2.78
2022-10-17T00:54:33.980Z,2.63
2022-10-17T00:57:00.611Z,2.83
2022-10-17T00:59:27.585Z,2.60
2022-10-17T01:01:56.766Z,3.10
2022-10-17T01:04:23.065Z,2.50
2022-10-17T01:06:49.358Z,2.40
2022-10-17T01:09:15.774Z,3.08
2022-10-17T01:11:56.463Z,3.45
2022-10-17T01:14:25.908Z,1.35
2022-10-17T01:16:57.315Z,2.75
2022-10-17T01:19:26.668Z,3.72
2022-10-17T01:22:11.802Z,3.40
2022-10-17T01:24:47.087Z,2.78
2022-10-17T01:27:25.386Z,3.05
2022-10-17T01:30:02.141Z,2.95
2022-10-17T01:32:31.256Z,3.13
2022-10-17T01:35:12.607Z,2.65
2022-10-17T01:37:48.123Z,3.55
2022-10-17T01:40:22.674Z,3.50
2022-10-17T01:42:56.909Z,3.80
2022-10-17T01:45:27.783Z,3.53
2022-10-17T01:47:55.722Z,3.17
2022-10-17T01:50:28.190Z,3.92
2022-10-17T01:53:02.062Z,3.03
2022-10-17T01:55:32.978Z,3.45
2022-10-17T01:58:02.647Z,3.10
2022-10-17T02:00:29.937Z,3.47
2022-10-17T02:02:58.684Z,3.90
2022-10-17T02:05:27.759Z,3.20
2022-10-17T02:07:54.054Z,3.45
2022-10-17T02:10:43.701Z,2.80
2022-10-17T02:13:17.899Z,3.30
2022-10-17T02:16:19.848Z,3.88
2022-10-17T02:18:48.669Z,4.43
2022-10-17T02:21:18.853Z,3.13
2022-10-17T02:24:04.168Z,3.38
2022-10-17T02:26:33.702Z,2.50
2022-10-17T02:29:06.631Z,3.53
2022-10-17T02:31:45.445Z,3.05
2022-10-17T02:34:30.127Z,3.58
2022-10-17T02:36:59.416Z,3.22
2022-10-17T02:39:27.251Z,3.90
2022-10-17T02:41:55.252Z,3.92
2022-10-17T02:44:22.728Z,3.75
2022-10-17T02:46:53.000Z,3.88
2022-10-17T02:49:24.948Z,3.97
2022-10-17T02:51:54.135Z,4.32
2022-10-17T02:54:24.468Z,3.10
2022-10-17T02:56:53.464Z,4.05
2022-10-17T02:59:21.309Z,4.38
2022-10-17T03:01:49.074Z,3.72
2022-10-17T03:04:15.452Z,3.80
2022-10-17T03:06:41.740Z,3.83
2022-10-17T03:09:08.417Z,3.22
2022-10-17T03:11:34.809Z,3.60
2022-10-17T03:14:01.107Z,1.83
2022-10-17T03:16:27.525Z,3.50
2022-10-17T03:18:53.873Z,3.75
2022-10-17T03:21:20.247Z,3.67
2022-10-17T03:23:46.559Z,3.63
2022-10-17T03:26:12.968Z,3.33
2022-10-17T03:28:39.386Z,3.55
2022-10-17T03:31:09.912Z,3.13
2022-10-17T03:33:36.779Z,3.38
2022-10-17T03:36:15.863Z,3.22
2022-10-17T03:38:42.648Z,3.35
2022-10-17T03:41:09.507Z,3.40
2022-10-17T03:43:35.853Z,3.47
2022-10-17T03:46:02.310Z,3.47
2022-10-17T03:48:29.405Z,3.35
2022-10-17T03:51:00.139Z,3.72
2022-10-17T03:53:26.561Z,3.67
2022-10-17T03:55:52.856Z,3.30
2022-10-17T03:58:19.471Z,3.88
2022-10-17T04:00:45.880Z,4.15
2022-10-17T04:03:16.430Z,4.20
2022-10-17T04:05:43.797Z,4.60
2022-10-17T04:08:10.149Z,3.78
2022-10-17T04:10:36.566Z,3.72
2022-10-17T04:13:02.990Z,3.35
2022-10-17T04:15:29.337Z,4.15
2022-10-17T04:17:55.675Z,3.38
2022-10-17T04:20:22.182Z,3.40
2022-10-17T04:22:48.487Z,3.80
2022-10-17T04:25:14.825Z,3.67
2022-10-17T04:27:41.108Z,3.92
2022-10-17T04:30:07.608Z,3.70
2022-10-17T04:32:36.660Z,3.15
2022-10-17T04:35:02.991Z,3.17
2022-10-17T04:37:29.931Z,3.55
2022-10-17T04:39:56.238Z,3.45
2022-10-17T04:42:22.504Z,3.63
2022-10-17T04:44:48.800Z,3.72
2022-10-17T04:47:15.156Z,3.55
2022-10-17T04:52:13.122Z,3.42
2022-10-17T04:54:39.459Z,3.55
2022-10-17T04:57:05.733Z,3.70
2022-10-17T04:59:32.146Z,3.30
2022-10-17T05:01:58.478Z,3.40
2022-10-17T05:04:25.308Z,3.80
2022-10-17T05:06:51.630Z,3.20
2022-10-17T05:09:18.300Z,3.30
2022-10-17T05:11:44.596Z,3.47
2022-10-17T05:14:10.874Z,3.17
2022-10-17T05:16:37.406Z,3.58
2022-10-17T05:19:03.773Z,2.95
2022-10-17T05:21:30.387Z,3.63
2022-10-17T05:23:56.737Z,3.22
2022-10-17T05:26:23.587Z,2.78
2022-10-17T05:28:50.104Z,2.90
2022-10-17T05:31:16.461Z,3.53
2022-10-17T05:33:42.771Z,1.83
2022-10-17T05:36:09.433Z,2.78
2022-10-17T05:38:35.729Z,2.90
2022-10-17T05:41:03.137Z,3.00
2022-10-17T05:43:29.652Z,3.35
2022-10-17T05:45:56.207Z,2.38
2022-10-17T05:48:23.281Z,2.20
2022-10-17T05:50:49.877Z,3.03
2022-10-17T05:53:16.741Z,1.75
2022-10-17T05:55:43.016Z,2.33
2022-10-17T05:58:11.733Z,1.98
2022-10-17T06:00:47.885Z,1.48
2022-10-17T06:03:14.183Z,1.95
2022-10-17T06:05:40.500Z,2.15
2022-10-17T06:08:06.799Z,1.00
2022-10-17T06:10:33.164Z,1.20
2022-10-17T06:12:59.447Z,2.80
2022-10-17T06:15:25.780Z,1.83
2022-10-17T06:17:52.106Z,1.10
2022-10-17T06:20:18.435Z,2.60
2022-10-17T06:22:44.746Z,2.03
2022-10-17T06:25:11.135Z,1.13
2022-10-17T06:27:37.487Z,2.65
2022-10-17T06:30:04.075Z,2.67
2022-10-17T06:32:30.702Z,1.60
2022-10-17T06:34:57.275Z,2.35
2022-10-17T06:37:23.584Z,1.80
2022-10-17T06:39:51.596Z,3.10
2022-10-17T06:42:17.931Z,2.63
2022-10-17T06:44:44.227Z,1.95
2022-10-17T06:47:11.070Z,1.98
2022-10-17T06:49:37.433Z,2.20
2022-10-17T06:52:03.769Z,1.98
2022-10-17T06:54:30.075Z,1.45
2022-10-17T06:56:56.495Z,3.17
2022-10-17T06:59:22.788Z,3.15
2022-10-17T07:01:49.091Z,2.00
2022-10-17T07:04:15.376Z,3.53
2022-10-17T07:06:41.732Z,3.08
2022-10-17T07:09:08.173Z,3.10
2022-10-17T07:11:37.200Z,3.78
2022-10-17T07:14:03.582Z,3.15
2022-10-17T07:16:30.165Z,3.65
2022-10-17T07:18:56.556Z,3.60
2022-10-17T07:21:22.908Z,3.47
2022-10-17T07:23:49.217Z,3.30
2022-10-17T07:26:16.323Z,3.45
2022-10-17T07:28:44.083Z,3.28
2022-10-17T07:31:12.166Z,3.88
2022-10-17T07:33:38.706Z,3.45
2022-10-17T07:36:05.601Z,3.33
2022-10-17T07:38:31.983Z,3.50
2022-10-17T07:40:59.723Z,3.40
2022-10-17T07:43:26.419Z,3.15
2022-10-17T07:45:53.067Z,3.67
2022-10-17T07:48:19.778Z,3.78
2022-10-17T07:50:46.098Z,4.13
2022-10-17T07:53:12.472Z,3.17
2022-10-17T07:55:39.497Z,4.25
2022-10-17T07:58:06.018Z,3.55
2022-10-17T08:00:32.516Z,3.85
2022-10-17T08:02:58.882Z,4.43
2022-10-17T08:05:25.202Z,3.70
2022-10-17T08:07:51.531Z,2.88
2022-10-17T08:10:18.004Z,3.65
2022-10-17T08:12:44.313Z,3.78
2022-10-17T08:15:10.969Z,3.85
2022-10-17T08:17:37.996Z,3.45
2022-10-17T08:20:05.187Z,3.65
2022-10-17T08:22:31.995Z,3.50
2022-10-17T08:24:58.678Z,3.40
2022-10-17T08:27:25.526Z,3.08
2022-10-17T08:29:52.889Z,2.60
2022-10-17T08:32:20.180Z,3.35
2022-10-17T08:34:46.761Z,3.22
2022-10-17T08:37:15.892Z,3.65
2022-10-17T08:39:42.645Z,3.70
2022-10-17T08:42:08.932Z,3.65
2022-10-17T08:44:35.213Z,3.63
2022-10-17T08:47:03.718Z,3.22
2022-10-17T08:49:37.592Z,3.38
2022-10-17T08:52:10.603Z,3.33
2022-10-17T08:54:47.636Z,3.72
2022-10-17T08:57:15.432Z,3.65
2022-10-17T08:59:42.772Z,4.18
2022-10-17T09:02:27.614Z,4.07
2022-10-17T09:05:12.531Z,4.22
2022-10-17T09:07:44.359Z,4.10
2022-10-17T09:10:17.093Z,3.70
2022-10-17T09:13:07.962Z,3.35
2022-10-17T09:15:54.724Z,4.03
2022-10-17T09:18:23.898Z,4.60
2022-10-17T09:21:09.165Z,3.55
2022-10-17T09:23:45.602Z,3.83
2022-10-17T09:26:12.208Z,4.10
2022-10-17T09:28:39.541Z,4.40
2022-10-17T09:31:10.650Z,4.45
2022-10-17T09:33:53.770Z,3.25
2022-10-17T09:36:34.132Z,4.07
2022-10-17T09:39:01.932Z,3.65
2022-10-17T09:41:47.499Z,3.60
2022-10-17T09:44:13.902Z,3.15
2022-10-17T09:46:40.300Z,3.80
2022-10-17T09:49:11.241Z,3.55
2022-10-17T09:51:40.103Z,2.63
2022-10-17T09:54:12.287Z,2.95
2022-10-17T09:57:11.249Z,3.13
2022-10-17T09:59:38.833Z,2.85
2022-10-17T10:02:24.096Z,3.55
2022-10-17T10:05:05.667Z,3.70
2022-10-17T10:07:39.336Z,2.88
2022-10-17T10:10:07.395Z,3.13
2022-10-17T10:12:35.377Z,3.35
2022-10-17T10:15:01.743Z,3.20
2022-10-17T10:17:33.461Z,2.75
2022-10-17T10:19:59.896Z,2.72
2022-10-17T10:22:26.521Z,2.70
2022-10-17T10:25:08.359Z,2.13
2022-10-17T10:27:35.334Z,1.75
2022-10-17T10:30:02.143Z,2.75
2022-10-17T10:32:31.661Z,3.30
2022-10-17T10:34:58.167Z,2.75
2022-10-17T10:37:26.717Z,2.70
2022-10-17T10:39:54.908Z,2.50
2022-10-17T10:42:21.240Z,2.10
2022-10-17T10:44:47.984Z,1.42
2022-10-17T10:47:17.069Z,1.17
2022-10-17T10:49:43.688Z,1.27
2022-10-17T10:52:15.021Z,0.98
2022-10-17T10:54:44.350Z,1.40
2022-10-17T10:57:13.196Z,1.10
2022-10-17T10:59:39.511Z,1.98
2022-10-17T11:02:21.920Z,1.60
2022-10-17T11:05:00.631Z,1.55
2022-10-17T11:07:32.337Z,1.48
2022-10-17T11:10:05.670Z,1.42
2022-10-17T11:12:46.421Z,1.40
2022-10-17T11:15:25.324Z,2.08
2022-10-17T11:17:59.786Z,1.17
2022-10-17T11:20:44.878Z,1.13
2022-10-17T11:23:19.713Z,1.17
2022-10-17T11:25:46.873Z,1.20
2022-10-17T11:28:14.942Z,1.05
2022-10-17T11:33:20.540Z,0.98
2022-10-17T11:35:49.762Z,1.08
2022-10-17T11:38:29.708Z,0.98
2022-10-17T11:40:57.734Z,0.80
2022-10-17T11:43:26.904Z,0.93
2022-10-17T11:45:56.704Z,1.10
2022-10-17T11:48:34.575Z,1.00
2022-10-17T11:53:58.320Z,1.20
2022-10-17T11:56:43.440Z,1.23
2022-10-17T11:59:18.572Z,1.25
2022-10-17T12:01:48.741Z,1.45
2022-10-17T12:04:33.625Z,1.55
2022-10-17T12:07:09.238Z,1.48
2022-10-17T12:09:42.347Z,1.65
2022-10-17T12:12:08.744Z,1.38
2022-10-17T12:14:42.348Z,1.92
2022-10-17T12:17:27.839Z,1.50
2022-10-17T12:20:14.366Z,1.70
2022-10-17T12:22:46.847Z,1.48
2022-10-17T12:25:31.464Z,1.65
2022-10-17T12:28:03.900Z,2.08
2022-10-17T12:30:30.448Z,1.42
2022-10-17T12:33:06.725Z,1.25
2022-10-17T12:35:34.824Z,1.45
2022-10-17T12:38:04.096Z,1.05
2022-10-17T12:40:36.711Z,1.42
2022-10-17T12:43:22.994Z,1.27
2022-10-17T12:45:52.344Z,0.70
2022-10-17T12:48:33.736Z,1.40
2022-10-17T12:54:07.177Z,0.98
2022-10-17T12:56:41.149Z,1.10
2022-10-17T12:59:20.337Z,1.10
2022-10-17T13:01:48.283Z,1.10
2022-10-17T13:04:15.433Z,1.15
2022-10-17T13:06:46.628Z,1.10
2022-10-17T13:09:23.576Z,1.20
2022-10-17T13:11:50.361Z,1.13
2022-10-17T13:14:18.694Z,1.80
2022-10-17T13:16:52.297Z,1.58
2022-10-17T13:19:19.808Z,1.10
2022-10-17T13:21:49.928Z,1.30
2022-10-17T13:24:20.141Z,1.50
2022-10-17T13:26:46.560Z,1.02
2022-10-17T13:29:14.315Z,0.50
2022-10-17T13:31:44.239Z,1.00
2022-10-17T13:34:18.442Z,1.17
2022-10-17T13:36:48.806Z,1.10
2022-10-17T13:39:19.685Z,1.10
2022-10-17T13:41:50.371Z,1.00
2022-10-17T13:44:18.233Z,0.85
2022-10-17T13:46:45.027Z,1.00
2022-10-17T13:49:15.261Z,0.98
2022-10-17T13:51:45.347Z,1.33
2022-10-17T13:54:38.117Z,1.05
2022-10-17T13:57:05.376Z,1.75
2022-10-17T13:59:36.078Z,1.25
2022-10-17T14:02:02.396Z,1.52
2022-10-17T14:04:35.501Z,1.20
2022-10-17T14:07:21.301Z,0.93
2022-10-17T14:09:47.769Z,1.45
2022-10-17T14:12:15.059Z,1.52
2022-10-17T14:15:08.795Z,1.13
2022-10-17T14:17:33.479Z,1.33
2022-10-17T14:20:34.507Z,1.40
2022-10-17T14:23:10.789Z,1.38
2022-10-17T14:25:39.351Z,1.00
2022-10-17T14:28:15.055Z,1.48
2022-10-17T14:33:26.715Z,1.20
2022-10-17T14:35:53.898Z,1.63
2022-10-17T14:38:20.676Z,1.13
2022-10-17T14:40:51.268Z,1.50
2022-10-17T14:43:21.457Z,1.30
2022-10-17T14:45:48.019Z,1.52
2022-10-17T14:48:15.968Z,1.35
2022-10-17T14:50:46.771Z,1.20
2022-10-17T14:53:13.077Z,1.77
2022-10-17T14:55:40.512Z,1.00
2022-10-17T14:58:16.977Z,1.45
2022-10-17T15:00:43.465Z,1.15
2022-10-17T15:03:09.893Z,1.02
2022-10-17T15:05:36.259Z,1.08
2022-10-17T15:08:02.589Z,1.25
2022-10-17T15:10:32.108Z,1.50
2022-10-17T15:13:16.386Z,1.50
2022-10-17T15:15:51.216Z,1.60
2022-10-17T15:18:17.648Z,0.88
2022-10-17T15:20:43.942Z,1.52
2022-10-17T15:23:10.229Z,1.85
2022-10-17T15:25:36.588Z,1.17
2022-10-17T15:28:02.862Z,1.30
2022-10-17T15:30:32.010Z,1.45
2022-10-17T15:32:59.065Z,1.17
2022-10-17T15:35:25.652Z,1.20
2022-10-17T15:37:51.955Z,1.38
2022-10-17T15:40:29.180Z,1.50
2022-10-17T15:42:56.331Z,1.52
2022-10-17T15:45:23.678Z,1.98
2022-10-17T15:47:51.358Z,1.50
2022-10-17T15:50:17.669Z,1.67
2022-10-17T15:52:44.286Z,1.10
2022-10-17T15:55:10.944Z,1.40
2022-10-17T15:57:39.222Z,1.20
2022-10-17T16:00:07.540Z,1.27
2022-10-17T16:02:34.206Z,1.33
2022-10-17T16:05:00.854Z,1.20
2022-10-17T16:07:27.217Z,1.00
2022-10-17T16:09:53.555Z,1.23
2022-10-17T16:12:28.920Z,1.33
2022-10-17T16:14:55.494Z,1.38
2022-10-17T16:17:21.836Z,0.93
2022-10-17T16:19:48.308Z,1.95
2022-10-17T16:22:42.047Z,1.33
2022-10-17T16:25:19.314Z,1.05
2022-10-17T16:27:49.539Z,1.45
2022-10-17T16:30:16.412Z,1.30
2022-10-17T16:32:42.807Z,1.00
2022-10-17T16:35:09.669Z,1.33
2022-10-17T16:37:36.396Z,0.80
2022-10-17T16:40:04.307Z,1.77
2022-10-17T16:42:30.844Z,1.42
2022-10-17T16:44:57.468Z,0.93
2022-10-17T16:47:23.757Z,0.77
2022-10-17T16:49:50.075Z,1.30
2022-10-17T16:52:16.368Z,1.23
2022-10-17T16:54:42.701Z,1.20
2022-10-17T16:57:09.203Z,1.20
2022-10-17T16:59:35.597Z,1.08
2022-10-17T17:02:01.973Z,1.20
2022-10-17T17:04:28.346Z,1.38
2022-10-17T17:06:54.649Z,1.35
2022-10-17T17:09:21.038Z,1.30
2022-10-17T17:11:47.468Z,0.93
2022-10-17T17:14:13.811Z,1.42
2022-10-17T17:16:40.166Z,1.55
2022-10-17T17:19:07.687Z,1.17
2022-10-17T17:21:34.999Z,0.85
2022-10-17T17:24:01.919Z,0.88
2022-10-17T17:26:29.304Z,1.05
2022-10-17T17:28:57.437Z,1.10
2022-10-17T17:31:25.045Z,0.95
2022-10-17T17:33:51.984Z,0.77
2022-10-17T17:36:19.872Z,1.20
2022-10-17T17:38:46.592Z,0.95
2022-10-17T17:41:13.876Z,1.00
2022-10-17T17:43:40.588Z,1.23
2022-10-17T17:46:07.505Z,1.10
2022-10-17T17:48:36.409Z,1.05
2022-10-17T17:51:03.772Z,1.10
2022-10-17T17:53:30.375Z,1.23
2022-10-17T17:56:08.338Z,1.27
2022-10-17T17:58:34.982Z,1.40
2022-10-17T18:01:01.938Z,1.00
2022-10-17T18:03:28.431Z,0.77
2022-10-17T18:05:54.735Z,1.95
2022-10-17T18:08:21.188Z,1.15
2022-10-17T18:10:48.528Z,1.27
2022-10-17T18:13:15.189Z,1.63
2022-10-17T18:15:42.232Z,1.10
2022-10-17T18:18:08.581Z,1.00
2022-10-17T18:20:36.074Z,1.00
2022-10-17T18:23:04.264Z,1.30
2022-10-17T18:25:30.764Z,1.20
2022-10-17T18:27:57.048Z,1.42
2022-10-17T18:30:25.916Z,1.25
2022-10-17T18:32:54.399Z,1.38
2022-10-17T18:35:20.691Z,0.95
2022-10-17T18:37:47.010Z,1.42
2022-10-17T18:40:13.317Z,1.50
2022-10-17T18:42:42.410Z,1.65
2022-10-17T18:45:09.032Z,1.30
2022-10-17T18:47:35.340Z,1.33
2022-10-17T18:50:01.708Z,1.25
2022-10-17T18:52:27.992Z,1.10
2022-10-17T18:54:54.557Z,1.42
2022-10-17T18:57:23.844Z,1.55
2022-10-17T18:59:52.345Z,1.38
2022-10-17T19:02:18.782Z,1.27
2022-10-17T19:04:45.140Z,1.50
2022-10-17T19:07:11.547Z,1.80
2022-10-17T19:09:37.874Z,0.68
2022-10-17T19:12:04.268Z,1.05
2022-10-17T19:14:30.640Z,1.10
2022-10-17T19:16:57.365Z,1.27
2022-10-17T19:19:24.861Z,1.17
2022-10-17T19:21:51.686Z,1.92
2022-10-17T19:24:22.815Z,1.77
2022-10-17T19:26:55.925Z,1.02
2022-10-17T19:29:23.863Z,1.30
2022-10-17T19:31:50.317Z,1.48
2022-10-17T19:34:17.616Z,1.73
2022-10-17T19:36:43.940Z,1.00
2022-10-17T19:39:12.146Z,0.90
2022-10-17T19:41:40.312Z,0.95
2022-10-17T19:44:06.711Z,0.98
2022-10-17T19:46:34.087Z,0.82
2022-10-17T19:49:00.825Z,1.60
2022-10-17T19:51:28.495Z,1.35
2022-10-17T19:53:55.404Z,1.38
2022-10-17T19:56:22.460Z,1.50
2022-10-17T19:58:49.914Z,1.27
2022-10-17T20:01:23.674Z,1.33
2022-10-17T20:03:50.266Z,1.55
2022-10-17T20:06:16.992Z,0.98
2022-10-17T20:08:43.330Z,0.95
2022-10-17T20:11:11.467Z,1.88
2022-10-17T20:13:38.176Z,1.35
2022-10-17T20:16:05.895Z,1.05
2022-10-17T20:18:32.328Z,1.05
2022-10-17T20:21:05.868Z,1.05
2022-10-17T20:23:32.179Z,0.85
2022-10-17T20:26:13.613Z,1.35
2022-10-17T20:28:49.097Z,1.50
2022-10-17T20:31:15.909Z,1.30
2022-10-17T20:33:42.273Z,1.90
2022-10-17T20:36:09.495Z,0.98
2022-10-17T20:38:35.949Z,1.30
2022-10-17T20:41:03.457Z,1.00
2022-10-17T20:43:29.778Z,1.85
2022-10-17T20:46:03.605Z,1.40
2022-10-17T20:48:35.022Z,1.58
2022-10-17T20:51:06.404Z,1.70
2022-10-17T20:53:37.098Z,1.17
2022-10-17T20:56:03.969Z,1.10
2022-10-17T20:58:30.296Z,1.73
2022-10-17T21:00:56.703Z,1.40
2022-10-17T21:03:23.420Z,1.55
2022-10-17T21:05:49.716Z,1.63
2022-10-17T21:08:16.060Z,1.17
2022-10-17T21:10:42.352Z,0.80
2022-10-17T21:13:08.727Z,1.52
2022-10-17T21:15:35.026Z,1.77
2022-10-17T21:18:01.309Z,1.52
2022-10-17T21:20:27.635Z,1.40
2022-10-17T21:22:54.016Z,2.10
2022-10-17T21:25:20.325Z,1.55
2022-10-17T21:27:46.660Z,0.93
2022-10-17T21:30:13.122Z,2.10
2022-10-17T21:32:54.468Z,1.88
2022-10-17T21:35:21.102Z,1.70
2022-10-17T21:37:47.401Z,1.48
2022-10-17T21:40:13.702Z,2.05
2022-10-17T21:42:40.147Z,1.92
2022-10-17T21:45:15.396Z,1.83
2022-10-17T21:47:54.943Z,2.17
2022-10-17T21:50:27.485Z,1.67
2022-10-17T21:52:53.847Z,1.60
2022-10-17T21:55:20.129Z,1.35
2022-10-17T21:57:46.409Z,1.60
2022-10-17T22:00:12.907Z,1.23
2022-10-17T22:02:39.181Z,1.67
2022-10-17T22:05:05.616Z,2.55
2022-10-17T22:07:31.930Z,1.23
2022-10-17T22:09:58.225Z,1.77
2022-10-17T22:12:24.548Z,2.42
2022-10-17T22:14:50.848Z,1.88
2022-10-17T22:17:17.180Z,1.23
2022-10-17T22:19:43.464Z,1.17
2022-10-17T22:22:09.783Z,1.30
2022-10-17T22:24:36.150Z,1.40
2022-10-17T22:27:02.525Z,1.38
2022-10-17T22:29:28.840Z,2.00
2022-10-17T22:31:55.239Z,0.90
2022-10-17T22:34:21.506Z,1.90
2022-10-17T22:36:48.836Z,1.80
2022-10-17T22:39:15.142Z,1.13
2022-10-17T22:41:41.483Z,1.73
2022-10-17T22:44:07.919Z,2.17
2022-10-17T22:46:34.458Z,1.90
2022-10-17T22:49:00.741Z,1.60
2022-10-17T22:51:27.071Z,1.40
2022-10-17T22:53:53.383Z,1.70
2022-10-17T22:56:20.656Z,1.63
2022-10-17T22:58:47.106Z,2.00
2022-10-17T23:01:18.217Z,1.35
2022-10-17T23:03:44.669Z,1.75
2022-10-17T23:06:10.986Z,2.10
2022-10-17T23:08:37.462Z,1.30
2022-10-17T23:11:03.804Z,0.98
2022-10-17T23:13:30.108Z,1.90
2022-10-17T23:15:57.150Z,1.90
2022-10-17T23:18:24.133Z,1.88
2022-10-17T23:20:50.831Z,1.67
2022-10-17T23:23:17.527Z,2.20
2022-10-17T23:25:43.880Z,1.30
2022-10-17T23:28:10.703Z,1.63
2022-10-17T23:30:37.627Z,1.38
2022-10-17T23:33:04.097Z,0.73
2022-10-17T23:35:30.458Z,1.75
2022-10-17T23:37:56.797Z,2.58
2022-10-17T23:40:23.143Z,2.33
2022-10-17T23:42:49.640Z,0.60
2022-10-17T23:45:16.059Z,1.38
2022-10-17T23:47:42.372Z,1.40
2022-10-17T23:50:08.757Z,1.13
2022-10-17T23:52:35.066Z,2.72
2022-10-17T23:55:01.376Z,1.70
2022-10-17T23:57:27.849Z,1.05
2022-10-17T23:59:55.344Z,1.40
